Andes — 5BFM3 — position and weather

sailwx.info

Track history (hours):
 
Tides and Currents Weather Stations Pressure Air Temp Water Temp Dewpoint Dewpoint Depression Visibility Wind Speed Wind Dir Waves Ship Positions

Andes

Last reported at 2014-Sep-17 02:09 UTC. Time now 2014-Sep-17 03:31 UTC.
Position N 26°25' W 078°52'.

Length 182 m; draft 9.8 m.

Type: Ship. MMSI: 209394000.

Date/timePositionNaut miles runAvg speedWind from/ knotsBaromVisibWave heightAir tempDewpointWater temp
2014-Sep-17 02:09N 26°25' W 078°52'2 0.1
2014-Sep-16 03:11N 26°25' W 078°54'10 0.5
2014-Sep-15 08:07N 26°18' W 079°02'1 0.8
2014-Sep-15 07:22N 26°19' W 079°01'2 1.0
2014-Sep-15 05:26N 26°20' W 078°59'1 1.1
2014-Sep-15 04:28N 26°20' W 078°59'4 0.9
2014-Sep-15 00:28N 26°23' W 078°56'1 0.8
2014-Sep-14 23:33N 26°24' W 078°56'1 0.8
2014-Sep-14 22:20N 26°25' W 078°55'1 0.7
2014-Sep-14 21:32N 26°25' W 078°55'2 0.6
2014-Sep-14 17:33N 26°27' W 078°53'1 0.6
2014-Sep-14 16:28N 26°27' W 078°52'4 0.7
2014-Sep-14 10:23N 26°28' W 078°48'1 0.7
2014-Sep-14 09:08N 26°28' W 078°48'  
2014-Sep-11 06:23N 26°22' W 078°40'  
Track history (hours):
 
Tides and Currents Weather Stations Pressure Air Temp Water Temp Dewpoint Dewpoint Depression Visibility Wind Speed Wind Dir Waves Ship Positions

Andes

Last reported at 2014-Sep-17 02:09 UTC. Time now 2014-Sep-17 03:31 UTC.
Position N 26°25' W 078°52'.

Length 182 m; draft 9.8 m.

Type: Ship. MMSI: 209394000.

Date/timePositionNaut miles runAvg speedWind from/ knotsBaromVisibWave heightAir tempDewpointWater temp
2014-Sep-17 02:09N 26°25' W 078°52'2 0.1
2014-Sep-16 03:11N 26°25' W 078°54'10 0.5
2014-Sep-15 08:07N 26°18' W 079°02'1 0.8
2014-Sep-15 07:22N 26°19' W 079°01'2 1.0
2014-Sep-15 05:26N 26°20' W 078°59'1 1.1
2014-Sep-15 04:28N 26°20' W 078°59'4 0.9
2014-Sep-15 00:28N 26°23' W 078°56'1 0.8
2014-Sep-14 23:33N 26°24' W 078°56'1 0.8
2014-Sep-14 22:20N 26°25' W 078°55'1 0.7
2014-Sep-14 21:32N 26°25' W 078°55'2 0.6
2014-Sep-14 17:33N 26°27' W 078°53'1 0.6
2014-Sep-14 16:28N 26°27' W 078°52'4 0.7
2014-Sep-14 10:23N 26°28' W 078°48'1 0.7
2014-Sep-14 09:08N 26°28' W 078°48'  
2014-Sep-11 06:23N 26°22' W 078°40'  

Dump ship's entire track history